Time;durP1;ratioP1;P1;durP2;ratioP2;P2;SDS_P1;SDS_P2;PMS_P1;PMS_P2;Temp;Humidity;BMP_temperature;BMP_pressure;BME280_temperature;BME280_humidity;BME280_pressure;Samples;Min_cycle;Max_cycle;Signal;HPM_P1;HPM_P2
2023/06/16 00:00:24;;;;;;;11.60;4.00;;;;;;;12.46;77.51;100238.85;110126;1273;22147;-60
2023/06/16 00:03:15;;;;;;;11.60;3.90;;;;;;;12.43;77.52;100231.58;110105;1272;22368;-59
2023/06/16 00:05:47;;;;;;;16.20;4.90;;;;;;;12.39;77.50;100226.36;110100;1272;22350;-60
2023/06/16 00:08:19;;;;;;;12.50;4.90;;;;;;;12.35;77.61;100219.84;110107;1273;22221;-60
2023/06/16 00:10:49;;;;;;;12.30;4.00;;;;;;;12.31;77.53;100221.27;110104;1273;22415;-60
2023/06/16 00:13:20;;;;;;;16.70;5.10;;;;;;;12.26;77.72;100223.66;110139;1272;22125;-61
2023/06/16 00:15:51;;;;;;;13.40;4.90;;;;;;;12.22;77.81;100230.89;110137;1278;22417;-58
2023/06/16 00:18:23;;;;;;;11.70;4.00;;;;;;;12.21;77.72;100227.16;110115;1269;22905;-60
2023/06/16 00:20:54;;;;;;;12.50;4.90;;;;;;;12.19;77.83;100221.75;110091;1273;22428;-59
2023/06/16 00:23:26;;;;;;;13.40;5.10;;;;;;;12.17;77.71;100220.91;110098;1268;22150;-59
2023/06/16 00:25:57;;;;;;;12.90;5.20;;;;;;;12.15;77.86;100218.30;110104;1271;22875;-59
2023/06/16 00:28:28;;;;;;;12.80;4.90;;;;;;;12.12;78.15;100216.67;110094;1264;22215;-60
2023/06/16 00:30:59;;;;;;;11.10;4.30;;;;;;;12.11;78.19;100211.52;110122;1273;22210;-60
2023/06/16 00:33:30;;;;;;;14.80;5.10;;;;;;;12.10;78.25;100215.33;110123;1276;23214;-59
2023/06/16 00:36:01;;;;;;;16.20;5.70;;;;;;;12.07;78.30;100210.92;110114;1272;22234;-59
2023/06/16 00:38:32;;;;;;;14.50;6.00;;;;;;;12.05;78.44;100206.73;110150;1268;22338;-59
2023/06/16 00:41:03;;;;;;;14.50;5.30;;;;;;;12.05;78.27;100206.56;110125;1270;22248;-61
2023/06/16 00:43:34;;;;;;;15.20;5.90;;;;;;;12.05;78.48;100206.83;110113;1273;22391;-58
2023/06/16 00:46:06;;;;;;;13.80;5.60;;;;;;;12.02;78.47;100205.15;110056;1273;22270;-60
2023/06/16 00:48:37;;;;;;;12.70;5.80;;;;;;;12.00;78.74;100204.27;110073;1274;22964;-59
2023/06/16 00:51:09;;;;;;;12.80;5.30;;;;;;;11.99;78.85;100202.33;110091;1273;22450;-60
2023/06/16 00:53:40;;;;;;;14.30;5.20;;;;;;;11.97;78.88;100202.20;110128;1273;22196;-61
2023/06/16 00:56:11;;;;;;;14.40;5.80;;;;;;;11.94;78.60;100200.89;110054;1273;22283;-59
2023/06/16 00:58:42;;;;;;;13.40;5.30;;;;;;;11.92;78.91;100198.02;110087;1274;22152;-61
2023/06/16 01:01:14;;;;;;;13.20;5.20;;;;;;;11.89;79.00;100193.60;110126;1271;22410;-59
2023/06/16 01:03:50;;;;;;;14.00;5.90;;;;;;;11.86;79.07;100193.00;110149;1278;23283;-60
2023/06/16 01:06:33;;;;;;;19.50;7.10;;;;;;;11.85;79.23;100191.06;110103;1268;22202;-60
2023/06/16 01:09:09;;;;;;;14.40;5.50;;;;;;;11.85;79.65;100192.73;110168;1268;22322;-61
2023/06/16 01:11:48;;;;;;;17.00;5.70;;;;;;;11.82;79.71;100188.77;110149;1271;23091;-59
2023/06/16 01:14:24;;;;;;;19.00;6.30;;;;;;;11.79;79.81;100192.80;110141;1263;22191;-60
2023/06/16 01:16:55;;;;;;;13.10;5.40;;;;;;;11.77;80.02;100191.45;110107;1273;22216;-61
2023/06/16 01:19:37;;;;;;;13.00;5.40;;;;;;;11.73;79.92;100186.46;110114;1272;22782;-60
2023/06/16 01:22:16;;;;;;;16.10;5.30;;;;;;;11.67;79.91;100185.48;110060;1272;22393;-61
2023/06/16 01:24:48;;;;;;;15.40;5.80;;;;;;;11.65;79.99;100185.83;110159;1273;22308;-60
2023/06/16 01:27:22;;;;;;;17.40;5.40;;;;;;;11.60;79.76;100186.00;110103;1271;22338;-61
2023/06/16 01:29:53;;;;;;;15.00;6.20;;;;;;;11.55;79.52;100186.55;110117;1273;22277;-60
2023/06/16 01:32:26;;;;;;;16.10;5.50;;;;;;;11.51;79.56;100187.85;110142;1271;22298;-59
2023/06/16 01:34:59;;;;;;;13.00;5.00;;;;;;;11.47;79.77;100187.95;110116;1271;22181;-60
2023/06/16 01:37:30;;;;;;;12.80;4.80;;;;;;;11.41;79.78;100185.94;110139;1264;22388;-60
2023/06/16 01:40:01;;;;;;;15.60;5.80;;;;;;;11.36;79.93;100184.75;110150;1272;22269;-60
2023/06/16 01:42:34;;;;;;;17.90;6.80;;;;;;;11.32;79.72;100181.80;110150;1273;22297;-60
2023/06/16 01:45:06;;;;;;;13.00;4.70;;;;;;;11.29;80.07;100180.13;110111;1273;22162;-60
2023/06/16 01:47:37;;;;;;;13.10;4.90;;;;;;;11.26;79.98;100177.05;110110;1264;22169;-61
2023/06/16 01:50:09;;;;;;;16.40;5.00;;;;;;;11.23;80.05;100177.79;110130;1268;22392;-58
2023/06/16 01:52:40;;;;;;;15.50;5.00;;;;;;;11.19;80.13;100178.09;110098;1272;22213;-59
2023/06/16 01:55:11;;;;;;;12.10;4.30;;;;;;;11.16;80.21;100176.77;110125;1269;22367;-59
2023/06/16 01:57:42;;;;;;;14.90;4.40;;;;;;;11.12;80.08;100178.89;110151;1272;22246;-59
2023/06/16 02:00:18;;;;;;;14.20;5.40;;;;;;;11.08;80.10;100178.73;110100;1264;22169;-60
2023/06/16 02:02:53;;;;;;;13.20;4.70;;;;;;;11.03;80.02;100180.48;110125;1271;22357;-60
2023/06/16 02:05:26;;;;;;;14.80;4.50;;;;;;;11.00;80.37;100176.81;110123;1267;22172;-60
2023/06/16 02:08:01;;;;;;;12.80;5.20;;;;;;;10.98;80.44;100178.31;110093;1271;22195;-59
2023/06/16 02:10:32;;;;;;;16.00;4.80;;;;;;;10.94;80.48;100175.55;110116;1271;22411;-61
2023/06/16 02:13:03;;;;;;;11.30;4.30;;;;;;;10.92;80.26;100170.81;110144;1273;22160;-58
2023/06/16 02:15:34;;;;;;;13.50;4.80;;;;;;;10.90;80.43;100171.98;110122;1272;22335;-58
2023/06/16 02:18:09;;;;;;;11.30;4.30;;;;;;;10.87;80.60;100170.87;110110;1273;23074;-61
2023/06/16 02:20:40;;;;;;;14.90;5.10;;;;;;;10.86;80.46;100165.98;110037;1273;22205;-62
2023/06/16 02:23:11;;;;;;;12.90;5.50;;;;;;;10.84;80.44;100167.20;110110;1265;22176;-61
2023/06/16 02:26:08;;;;;;;13.10;4.30;;;;;;;10.82;80.60;100165.46;110099;1273;23625;-63
2023/06/16 02:28:39;;;;;;;12.90;4.80;;;;;;;10.80;80.61;100170.60;110121;1272;22252;-62
2023/06/16 02:31:12;;;;;;;16.20;5.80;;;;;;;10.80;80.50;100170.69;110120;1263;22381;-62
2023/06/16 02:33:43;;;;;;;17.70;6.40;;;;;;;10.79;80.61;100171.04;110137;1272;22321;-62
2023/06/16 02:36:16;;;;;;;16.50;5.70;;;;;;;10.77;80.71;100171.88;110100;1273;23159;-62
2023/06/16 02:38:47;;;;;;;13.80;5.90;;;;;;;10.77;80.99;100165.77;110093;1267;23369;-62
2023/06/16 02:41:18;;;;;;;14.00;5.70;;;;;;;10.75;81.24;100164.92;110110;1268;22252;-62
2023/06/16 02:43:49;;;;;;;15.40;6.40;;;;;;;10.73;81.44;100163.48;110097;1272;23107;-62
2023/06/16 02:46:20;;;;;;;15.70;5.00;;;;;;;10.72;81.42;100162.74;110072;1271;22365;-62
2023/06/16 02:48:51;;;;;;;13.70;5.30;;;;;;;10.70;81.37;100160.17;110110;1278;22444;-62
2023/06/16 02:51:21;;;;;;;15.90;6.00;;;;;;;10.68;81.53;100165.56;110074;1271;23087;-63
2023/06/16 02:53:52;;;;;;;15.40;5.20;;;;;;;10.66;81.58;100162.79;110115;1268;22353;-61
2023/06/16 02:56:23;;;;;;;22.50;5.80;;;;;;;10.63;81.33;100162.84;110102;1268;22158;-61
2023/06/16 02:58:54;;;;;;;13.50;5.20;;;;;;;10.60;81.37;100162.04;110102;1268;22990;-62
2023/06/16 03:01:29;;;;;;;15.60;5.30;;;;;;;10.59;81.34;100164.15;110095;1264;22098;-62
2023/06/16 03:04:00;;;;;;;13.40;5.60;;;;;;;10.59;81.67;100174.30;110060;1276;22207;-62
2023/06/16 03:06:34;;;;;;;16.10;6.20;;;;;;;10.57;81.85;100177.56;110117;1268;22338;-62
2023/06/16 03:09:05;;;;;;;15.90;6.50;;;;;;;10.58;82.06;100180.33;110027;1269;22286;-63
2023/06/16 03:11:36;;;;;;;12.90;5.40;;;;;;;10.59;82.14;100179.59;110088;1273;22333;-62
2023/06/16 03:14:07;;;;;;;14.80;6.00;;;;;;;10.58;82.30;100182.10;110116;1264;22208;-62
2023/06/16 03:16:40;;;;;;;14.40;6.00;;;;;;;10.58;82.56;100182.05;110132;1264;22158;-62
2023/06/16 03:19:11;;;;;;;15.10;5.90;;;;;;;10.58;82.54;100180.08;110098;1271;23241;-61
2023/06/16 03:21:42;;;;;;;13.90;5.30;;;;;;;10.59;82.73;100179.33;110108;1278;22319;-61
2023/06/16 03:24:16;;;;;;;13.60;5.90;;;;;;;10.59;82.55;100173.84;110110;1267;22386;-62
2023/06/16 03:26:47;;;;;;;17.30;5.70;;;;;;;10.60;82.81;100176.95;110091;1274;22172;-62
2023/06/16 03:29:18;;;;;;;16.20;5.80;;;;;;;10.60;82.89;100178.06;110085;1274;22207;-62
2023/06/16 03:31:50;;;;;;;19.10;5.80;;;;;;;10.61;82.99;100173.81;110145;1271;22183;-62
2023/06/16 03:34:21;;;;;;;16.60;6.00;;;;;;;10.62;83.41;100175.81;110135;1271;22418;-62
2023/06/16 03:36:52;;;;;;;13.70;5.80;;;;;;;10.63;83.34;100168.38;110159;1278;22411;-62
2023/06/16 03:39:22;;;;;;;15.60;6.00;;;;;;;10.64;83.67;100165.29;110144;1271;22170;-62
2023/06/16 03:41:54;;;;;;;14.40;6.20;;;;;;;10.66;83.59;100164.55;110075;1264;22243;-62
2023/06/16 03:44:25;;;;;;;14.80;5.80;;;;;;;10.68;83.80;100156.76;110061;1268;22307;-61
2023/06/16 03:46:56;;;;;;;15.80;5.90;;;;;;;10.71;84.04;100157.19;110049;1267;22193;-62
2023/06/16 03:49:28;;;;;;;14.50;5.80;;;;;;;10.74;84.15;100159.67;110078;1271;22793;-62
2023/06/16 03:51:59;;;;;;;14.10;6.00;;;;;;;10.77;84.34;100159.98;110119;1272;22930;-62
2023/06/16 03:54:30;;;;;;;15.00;5.60;;;;;;;10.82;84.53;100161.59;110150;1273;22564;-58
2023/06/16 03:57:01;;;;;;;14.90;5.30;;;;;;;10.87;84.70;100160.81;110108;1268;22384;-60
2023/06/16 03:59:31;;;;;;;15.50;5.70;;;;;;;10.93;84.93;100163.20;110041;1264;22319;-59
2023/06/16 04:02:07;;;;;;;14.70;6.20;;;;;;;10.99;85.02;100159.89;110037;1264;22290;-60
2023/06/16 04:04:38;;;;;;;15.60;6.00;;;;;;;11.06;85.36;100162.91;110018;1276;22242;-60
2023/06/16 04:07:11;;;;;;;16.60;6.40;;;;;;;11.15;85.95;100167.56;110064;1264;22205;-66
2023/06/16 04:09:42;;;;;;;20.00;7.80;;;;;;;11.23;86.02;100173.27;110074;1268;22957;-59
2023/06/16 04:12:13;;;;;;;18.20;7.30;;;;;;;11.32;85.98;100177.98;110068;1276;22968;-61
2023/06/16 04:14:44;;;;;;;14.90;6.90;;;;;;;11.41;86.14;100180.66;110157;1263;22237;-60
2023/06/16 04:17:15;;;;;;;15.00;7.50;;;;;;;11.51;86.49;100177.23;110064;1276;22388;-61
2023/06/16 04:19:46;;;;;;;21.50;8.20;;;;;;;11.60;86.76;100177.72;110122;1273;23149;-60
2023/06/16 04:22:17;;;;;;;18.10;7.30;;;;;;;11.69;86.76;100179.45;110110;1272;22413;-62
2023/06/16 04:24:49;;;;;;;19.80;8.30;;;;;;;11.79;86.72;100183.50;110107;1271;22863;-60
2023/06/16 04:27:23;;;;;;;16.80;7.30;;;;;;;11.88;86.83;100181.32;110153;1274;23423;-61
2023/06/16 04:29:55;;;;;;;18.80;7.80;;;;;;;11.98;87.08;100177.89;110144;1269;22239;-61
2023/06/16 04:32:25;;;;;;;17.70;8.00;;;;;;;12.10;87.09;100173.91;110136;1272;22159;-61
2023/06/16 04:34:57;;;;;;;14.30;6.70;;;;;;;12.22;87.02;100172.42;110098;1274;22184;-61
2023/06/16 04:37:28;;;;;;;21.90;8.20;;;;;;;12.33;87.21;100174.58;110084;1272;22175;-62
2023/06/16 04:39:59;;;;;;;18.50;6.80;;;;;;;12.45;86.94;100173.89;110141;1273;23276;-62
2023/06/16 04:42:30;;;;;;;21.90;7.80;;;;;;;12.55;86.66;100178.73;110108;1276;22318;-60
2023/06/16 04:45:01;;;;;;;16.50;7.30;;;;;;;12.64;86.57;100176.17;110144;1276;23385;-61
2023/06/16 04:47:34;;;;;;;20.00;6.60;;;;;;;12.76;86.69;100175.11;110168;1274;22147;-62
2023/06/16 04:50:05;;;;;;;12.80;5.90;;;;;;;12.86;86.67;100177.76;110143;1273;22254;-61
2023/06/16 04:52:36;;;;;;;16.00;7.30;;;;;;;12.97;86.74;100178.65;110128;1271;22249;-61
2023/06/16 04:55:08;;;;;;;16.60;6.90;;;;;;;13.10;86.81;100179.04;110174;1272;22762;-61
2023/06/16 04:57:39;;;;;;;23.30;8.10;;;;;;;13.23;86.90;100181.48;110166;1278;22221;-62
2023/06/16 05:00:13;;;;;;;23.20;7.30;;;;;;;13.38;87.14;100178.80;110131;1271;22151;-61
2023/06/16 05:02:43;;;;;;;20.00;7.90;;;;;;;13.52;86.77;100180.00;110214;1273;22276;-62
2023/06/16 05:05:14;;;;;;;24.10;7.90;;;;;;;13.60;86.17;100180.10;110168;1273;22205;-61
2023/06/16 05:07:45;;;;;;;17.50;6.90;;;;;;;13.69;85.51;100178.67;110283;1278;22173;-63
2023/06/16 05:10:16;;;;;;;19.80;7.90;;;;;;;13.80;85.86;100177.35;110234;1272;22265;-62
2023/06/16 05:12:47;;;;;;;18.50;8.40;;;;;;;13.97;86.41;100177.13;110122;1278;22170;-61
2023/06/16 05:15:18;;;;;;;19.10;7.90;;;;;;;14.14;86.09;100178.10;110139;1273;22932;-61
2023/06/16 05:17:49;;;;;;;18.20;7.90;;;;;;;14.31;85.90;100178.38;110170;1274;22227;-60
2023/06/16 05:20:20;;;;;;;17.20;7.40;;;;;;;14.45;85.61;100180.78;110175;1274;22156;-61
2023/06/16 05:22:50;;;;;;;14.80;6.60;;;;;;;14.59;85.71;100180.74;110104;1274;22271;-62
2023/06/16 05:25:21;;;;;;;20.60;7.60;;;;;;;14.74;85.62;100180.77;110165;1271;22188;-62
2023/06/16 05:27:52;;;;;;;22.80;7.60;;;;;;;14.86;85.33;100180.89;110116;1279;22198;-62
2023/06/16 05:30:23;;;;;;;17.80;6.80;;;;;;;15.00;85.26;100184.02;110118;1271;22308;-60
2023/06/16 05:32:54;;;;;;;18.10;8.30;;;;;;;15.13;84.78;100186.67;110111;1264;22221;-62
2023/06/16 05:35:25;;;;;;;17.80;7.30;;;;;;;15.24;84.42;100188.14;110115;1271;22407;-61
2023/06/16 05:37:56;;;;;;;14.60;5.30;;;;;;;15.34;84.13;100191.71;110125;1274;22128;-62
2023/06/16 05:40:27;;;;;;;17.20;5.80;;;;;;;15.48;83.77;100195.78;110119;1271;22207;-62
2023/06/16 05:42:58;;;;;;;15.20;6.20;;;;;;;15.59;83.14;100192.84;110101;1267;22235;-61
2023/06/16 05:45:29;;;;;;;17.70;6.90;;;;;;;15.69;82.98;100190.76;110142;1274;22184;-62
2023/06/16 05:48:00;;;;;;;18.50;7.40;;;;;;;15.80;82.88;100191.04;110126;1273;22314;-62
2023/06/16 05:50:31;;;;;;;16.90;5.80;;;;;;;15.95;82.67;100191.35;110145;1273;22399;-62
2023/06/16 05:53:02;;;;;;;18.30;6.70;;;;;;;16.10;82.28;100186.11;110159;1274;22340;-62
2023/06/16 05:55:33;;;;;;;14.60;6.00;;;;;;;16.21;81.70;100182.84;110155;1276;22326;-62
2023/06/16 05:58:03;;;;;;;21.10;7.20;;;;;;;16.31;81.30;100184.28;110134;1271;22526;-61
2023/06/16 06:00:35;;;;;;;13.50;4.20;;;;;;;16.40;81.04;100185.66;110117;1278;22138;-62
2023/06/16 06:03:08;;;;;;;14.90;6.20;;;;;;;16.53;81.09;100184.33;110119;1264;22190;-61
2023/06/16 06:05:39;;;;;;;12.80;4.90;;;;;;;16.66;79.93;100186.87;110142;1274;22516;-62
2023/06/16 06:08:10;;;;;;;21.50;5.30;;;;;;;16.76;80.22;100185.13;110135;1273;22186;-61
2023/06/16 06:10:41;;;;;;;16.80;5.60;;;;;;;16.88;79.56;100186.80;110132;1272;22198;-62
2023/06/16 06:13:12;;;;;;;17.70;5.80;;;;;;;17.04;79.51;100184.94;110123;1264;23091;-60
2023/06/16 06:15:43;;;;;;;15.70;5.40;;;;;;;17.20;79.02;100178.20;110140;1278;22395;-60
2023/06/16 06:18:14;;;;;;;14.00;5.50;;;;;;;17.36;78.16;100177.70;110137;1274;22259;-59
2023/06/16 06:20:46;;;;;;;15.00;5.40;;;;;;;17.44;77.81;100176.54;110117;1271;22229;-60
2023/06/16 06:23:17;;;;;;;15.10;4.50;;;;;;;17.52;77.35;100174.68;110117;1271;22178;-61
2023/06/16 06:25:48;;;;;;;16.20;5.40;;;;;;;17.60;76.86;100179.37;110145;1268;22177;-60
2023/06/16 06:28:19;;;;;;;17.10;5.50;;;;;;;17.62;76.76;100181.91;110129;1271;22166;-60
2023/06/16 06:30:50;;;;;;;14.80;4.90;;;;;;;17.69;76.44;100188.05;110111;1274;22960;-60
2023/06/16 06:33:21;;;;;;;13.80;4.40;;;;;;;17.73;75.83;100192.69;110129;1268;22320;-58
2023/06/16 06:35:51;;;;;;;15.20;4.80;;;;;;;17.83;76.44;100185.80;110138;1273;22169;-60
2023/06/16 06:38:22;;;;;;;13.10;4.30;;;;;;;17.99;75.69;100187.25;110170;1274;22249;-61
2023/06/16 06:40:53;;;;;;;12.10;4.70;;;;;;;18.07;75.00;100179.97;110111;1268;22186;-61
2023/06/16 06:43:26;;;;;;;12.00;3.80;;;;;;;18.15;74.57;100179.76;110138;1264;22227;-59
2023/06/16 06:45:57;;;;;;;17.40;4.40;;;;;;;18.17;73.98;100180.51;105932;1273;5405610;-61
2023/06/16 06:48:28;;;;;;;13.10;4.00;;;;;;;18.26;74.10;100177.05;110089;1274;22201;-60
2023/06/16 06:50:59;;;;;;;12.40;3.60;;;;;;;18.39;74.05;100174.20;110098;1274;22149;-60
2023/06/16 06:53:31;;;;;;;13.60;3.40;;;;;;;18.54;73.98;100174.00;110146;1274;23209;-60
2023/06/16 06:56:02;;;;;;;13.60;3.90;;;;;;;18.69;73.25;100174.88;110157;1273;22876;-61
2023/06/16 06:58:33;;;;;;;13.10;3.30;;;;;;;18.77;72.49;100177.83;110165;1272;22211;-60
2023/06/16 07:01:04;;;;;;;16.90;4.00;;;;;;;18.86;72.04;100175.84;110136;1278;23028;-60
2023/06/16 07:03:36;;;;;;;12.60;3.10;;;;;;;18.97;72.31;100175.83;110155;1278;22181;-60
2023/06/16 07:06:07;;;;;;;11.10;3.40;;;;;;;19.12;71.90;100178.15;110191;1270;22274;-60
2023/06/16 07:08:38;;;;;;;11.50;2.70;;;;;;;19.29;71.37;100179.65;110117;1276;22875;-60
2023/06/16 07:11:09;;;;;;;10.90;2.60;;;;;;;19.42;70.22;100185.45;110142;1265;22625;-60
2023/06/16 07:13:39;;;;;;;10.70;2.70;;;;;;;19.44;69.43;100187.83;110177;1274;22207;-61
2023/06/16 07:16:10;;;;;;;9.90;2.60;;;;;;;19.46;69.60;100187.32;110147;1271;23286;-61
2023/06/16 07:18:41;;;;;;;11.00;3.30;;;;;;;19.49;69.40;100184.42;110168;1278;22177;-61
2023/06/16 07:21:12;;;;;;;8.80;2.70;;;;;;;19.56;68.89;100181.21;110104;1273;22989;-61
2023/06/16 07:23:43;;;;;;;11.90;2.70;;;;;;;19.68;68.77;100178.61;110155;1274;22859;-60
2023/06/16 07:26:14;;;;;;;8.50;3.20;;;;;;;19.85;68.84;100176.59;110162;1267;22194;-61
2023/06/16 07:28:45;;;;;;;8.70;2.40;;;;;;;20.05;68.55;100175.92;110128;1267;23113;-60
2023/06/16 07:31:16;;;;;;;9.20;2.30;;;;;;;20.20;67.59;100174.02;110157;1271;22400;-59
2023/06/16 07:33:47;;;;;;;9.20;2.40;;;;;;;20.29;66.59;100175.80;110132;1271;22200;-59
2023/06/16 07:36:18;;;;;;;10.40;3.00;;;;;;;20.31;66.04;100179.69;110181;1274;22218;-60
2023/06/16 07:38:50;;;;;;;10.10;2.60;;;;;;;20.32;65.63;100176.98;110121;1274;22391;-60
2023/06/16 07:41:22;;;;;;;9.90;2.50;;;;;;;20.30;65.17;100178.51;110144;1273;22311;-59
2023/06/16 07:43:53;;;;;;;8.20;3.10;;;;;;;20.26;65.00;100180.16;110132;1273;22206;-59
2023/06/16 07:46:24;;;;;;;11.00;2.40;;;;;;;20.27;65.13;100176.72;110158;1264;23122;-59
2023/06/16 07:48:54;;;;;;;9.80;2.40;;;;;;;20.27;64.02;100179.26;110123;1279;22260;-60
2023/06/16 07:51:26;;;;;;;11.40;2.70;;;;;;;20.25;64.30;100178.73;110097;1268;22182;-60
2023/06/16 07:53:57;;;;;;;8.50;2.90;;;;;;;20.28;64.00;100180.41;110156;1274;22957;-59
2023/06/16 07:56:28;;;;;;;10.30;2.90;;;;;;;20.31;63.89;100176.59;110143;1274;22254;-60
2023/06/16 07:58:59;;;;;;;8.80;3.10;;;;;;;20.37;63.34;100173.48;110133;1267;22215;-60
2023/06/16 08:01:30;;;;;;;11.00;2.70;;;;;;;20.47;63.26;100170.31;110132;1272;23076;-60
2023/06/16 08:04:01;;;;;;;12.90;2.50;;;;;;;20.56;62.55;100172.05;110149;1278;22262;-60
2023/06/16 08:06:32;;;;;;;6.50;2.10;;;;;;;20.65;61.87;100167.83;110135;1274;22328;-60
2023/06/16 08:09:05;;;;;;;11.50;2.80;;;;;;;20.69;61.36;100169.84;110104;1274;22349;-60
2023/06/16 08:11:36;;;;;;;8.40;2.40;;;;;;;20.77;61.12;100174.24;110130;1268;22333;-60
2023/06/16 08:14:07;;;;;;;9.40;2.90;;;;;;;20.85;60.83;100173.64;110142;1270;22193;-60
2023/06/16 08:16:38;;;;;;;11.40;2.80;;;;;;;20.97;60.93;100169.45;110151;1268;22222;-60
2023/06/16 08:19:09;;;;;;;7.90;2.30;;;;;;;21.07;60.48;100168.19;110142;1271;22310;-60
2023/06/16 08:21:40;;;;;;;7.70;2.70;;;;;;;21.14;60.47;100168.38;110159;1271;22169;-60
2023/06/16 08:24:11;;;;;;;8.40;2.60;;;;;;;21.23;59.96;100163.95;110149;1274;23316;-60
2023/06/16 08:26:44;;;;;;;7.90;2.20;;;;;;;21.36;59.62;100155.31;110099;1268;22405;-60
2023/06/16 08:29:15;;;;;;;8.10;2.50;;;;;;;21.50;58.38;100157.56;110147;1270;22405;-60
2023/06/16 08:31:46;;;;;;;8.70;2.40;;;;;;;21.61;57.94;100156.52;110142;1277;22210;-60
2023/06/16 08:34:17;;;;;;;8.70;2.40;;;;;;;21.65;57.33;100159.59;110099;1271;22178;-60
2023/06/16 08:36:48;;;;;;;11.20;2.20;;;;;;;21.60;57.44;100156.39;110147;1274;22400;-60
2023/06/16 08:39:19;;;;;;;11.40;2.40;;;;;;;21.60;57.20;100160.38;110097;1271;22346;-60
2023/06/16 08:41:52;;;;;;;10.40;2.20;;;;;;;21.63;57.17;100162.33;110148;1277;22329;-59
2023/06/16 08:44:25;;;;;;;6.80;1.90;;;;;;;21.64;56.80;100155.63;110114;1269;22197;-60
2023/06/16 08:46:57;;;;;;;10.00;2.90;;;;;;;21.63;56.76;100160.93;110061;1272;22245;-59
2023/06/16 08:49:28;;;;;;;9.00;2.40;;;;;;;21.58;56.74;100155.90;110137;1263;22188;-60
2023/06/16 08:52:02;;;;;;;9.30;2.30;;;;;;;21.66;57.02;100154.81;110139;1275;22222;-60
2023/06/16 08:54:46;;;;;;;9.20;2.40;;;;;;;21.69;55.97;100150.73;110109;1274;22353;-60
2023/06/16 08:57:19;;;;;;;8.70;3.20;;;;;;;21.65;55.65;100151.17;110122;1274;22188;-60
2023/06/16 08:59:57;;;;;;;8.40;2.90;;;;;;;21.62;55.83;100153.91;110101;1272;22423;-61
2023/06/16 09:02:29;;;;;;;9.90;2.70;;;;;;;21.67;56.27;100151.88;110132;1273;22197;-61
2023/06/16 09:05:03;;;;;;;9.50;2.80;;;;;;;21.71;55.63;100150.52;110152;1273;22871;-61
2023/06/16 09:07:35;;;;;;;8.40;2.70;;;;;;;21.70;55.80;100151.27;110162;1273;23137;-60
2023/06/16 09:10:07;;;;;;;8.60;2.10;;;;;;;21.76;55.56;100154.80;110163;1272;22254;-60
2023/06/16 09:12:38;;;;;;;9.80;2.90;;;;;;;21.79;54.27;100153.38;110103;1277;22882;-61
2023/06/16 09:15:11;;;;;;;7.40;2.30;;;;;;;21.80;53.51;100158.31;110130;1276;22920;-61
2023/06/16 09:17:42;;;;;;;12.00;3.00;;;;;;;21.88;53.55;100153.04;110170;1276;22196;-60
2023/06/16 09:20:18;;;;;;;7.40;2.20;;;;;;;21.90;53.04;100151.16;110177;1276;22241;-60
2023/06/16 09:22:56;;;;;;;10.10;2.70;;;;;;;21.90;53.09;100151.01;110133;1271;22250;-61
2023/06/16 09:25:28;;;;;;;10.20;2.10;;;;;;;21.94;53.54;100147.66;110128;1275;22397;-60
2023/06/16 09:28:01;;;;;;;6.20;1.70;;;;;;;22.07;53.24;100144.12;110188;1278;22276;-61
2023/06/16 09:30:33;;;;;;;11.10;2.30;;;;;;;22.08;51.67;100141.29;110067;1277;22435;-60
2023/06/16 09:33:09;;;;;;;8.50;2.00;;;;;;;21.99;51.81;100142.38;110105;1267;22391;-61
2023/06/16 09:35:43;;;;;;;8.00;2.00;;;;;;;21.96;51.61;100142.83;110169;1273;22170;-60
2023/06/16 09:38:14;;;;;;;6.90;2.20;;;;;;;21.93;51.76;100140.23;110137;1275;22215;-61
2023/06/16 09:40:45;;;;;;;11.10;2.20;;;;;;;21.97;51.62;100133.61;110122;1277;22186;-60
2023/06/16 09:43:17;;;;;;;9.30;2.20;;;;;;;21.99;51.56;100135.10;110155;1271;22268;-60
2023/06/16 09:45:58;;;;;;;8.60;2.00;;;;;;;22.00;51.57;100129.99;110178;1278;22301;-61
2023/06/16 09:48:34;;;;;;;6.80;1.90;;;;;;;22.09;52.09;100125.97;110152;1268;22236;-61
2023/06/16 09:51:10;;;;;;;9.20;2.00;;;;;;;22.25;51.84;100126.00;110120;1267;23042;-60
2023/06/16 09:53:43;;;;;;;10.70;2.90;;;;;;;22.37;51.38;100126.80;110154;1273;22262;-61
2023/06/16 09:56:17;;;;;;;9.00;2.30;;;;;;;22.49;51.44;100119.70;110134;1272;22135;-61
2023/06/16 09:58:50;;;;;;;7.80;2.30;;;;;;;22.58;50.06;100121.60;110146;1274;22363;-61
2023/06/16 10:01:24;;;;;;;6.40;1.90;;;;;;;22.59;50.23;100118.80;110150;1265;22232;-60
2023/06/16 10:03:57;;;;;;;8.00;1.70;;;;;;;22.58;49.63;100122.58;110124;1278;22441;-61
2023/06/16 10:06:32;;;;;;;6.60;1.90;;;;;;;22.54;50.39;100117.06;110159;1273;23168;-61
2023/06/16 10:09:06;;;;;;;7.60;1.80;;;;;;;22.66;50.04;100111.85;110123;1272;22230;-61
2023/06/16 10:11:39;;;;;;;7.40;2.00;;;;;;;22.69;49.46;100108.44;110133;1275;22890;-61
2023/06/16 10:14:12;;;;;;;9.60;1.90;;;;;;;22.71;49.74;100104.91;110145;1273;22311;-61
2023/06/16 10:16:46;;;;;;;9.00;2.00;;;;;;;22.83;49.28;100108.56;110127;1276;22196;-61
2023/06/16 10:19:20;;;;;;;7.50;2.10;;;;;;;22.85;48.98;100106.67;110150;1271;22170;-60
2023/06/16 10:21:52;;;;;;;7.60;1.90;;;;;;;22.93;49.26;100100.90;110108;1278;22199;-61
2023/06/16 10:24:24;;;;;;;15.30;2.40;;;;;;;23.02;48.87;100096.89;110146;1273;22223;-61
2023/06/16 10:26:56;;;;;;;7.70;1.70;;;;;;;23.10;48.75;100094.56;110136;1276;22195;-61
2023/06/16 10:29:29;;;;;;;8.60;2.10;;;;;;;23.25;48.90;100088.71;109980;1271;22389;-60
2023/06/16 10:32:10;;;;;;;8.70;2.20;;;;;;;23.33;48.00;100093.81;110009;1273;22238;-60
2023/06/16 10:34:49;;;;;;;8.50;1.80;;;;;;;23.36;47.98;100090.20;110113;1271;22185;-61
2023/06/16 10:37:25;;;;;;;9.70;2.10;;;;;;;23.31;47.44;100087.58;110074;1272;22365;-61
2023/06/16 10:40:04;;;;;;;7.70;2.00;;;;;;;23.31;47.52;100086.49;110094;1279;22287;-62
2023/06/16 10:42:36;;;;;;;8.40;2.30;;;;;;;23.29;47.60;100090.07;110069;1267;23037;-60
2023/06/16 10:45:26;;;;;;;7.00;1.70;;;;;;;23.22;46.65;100089.35;110095;1276;22360;-61
2023/06/16 10:48:04;;;;;;;6.70;1.90;;;;;;;23.16;46.62;100087.69;110063;1273;22165;-61
2023/06/16 10:50:44;;;;;;;6.10;1.60;;;;;;;23.19;46.53;100086.13;109963;1271;23100;-61
2023/06/16 10:53:17;;;;;;;8.20;1.60;;;;;;;23.25;46.27;100087.27;109935;1269;22213;-61
2023/06/16 10:56:02;;;;;;;7.80;1.60;;;;;;;23.33;46.60;100087.89;110059;1267;22486;-61
2023/06/16 10:58:34;;;;;;;7.90;1.60;;;;;;;23.51;46.46;100082.82;110060;1273;22382;-61
2023/06/16 11:01:45;;;;;;;7.50;2.20;;;;;;;23.67;46.04;100078.79;110092;1272;22129;-60
2023/06/16 11:04:22;;;;;;;6.50;1.50;;;;;;;23.92;45.46;100077.33;109695;1271;22305;-60
2023/06/16 11:07:21;;;;;;;9.20;1.50;;;;;;;24.04;44.83;100073.75;109685;1271;22294;-59
2023/06/16 11:10:05;;;;;;;8.00;1.40;;;;;;;24.20;44.09;100070.91;109750;1285;22238;-60
2023/06/16 11:12:38;;;;;;;6.60;1.50;;;;;;;24.31;43.84;100067.70;109738;1270;22221;-59
2023/06/16 11:15:12;;;;;;;7.30;1.40;;;;;;;24.42;43.39;100069.64;109759;1283;23097;-60
2023/06/16 11:17:45;;;;;;;7.60;1.90;;;;;;;24.43;44.04;100064.09;109739;1271;22310;-60
2023/06/16 11:20:16;;;;;;;7.70;1.30;;;;;;;24.54;43.94;100067.45;109743;1278;22151;-60
2023/06/16 11:22:47;;;;;;;8.80;1.50;;;;;;;24.65;43.61;100068.06;109727;1277;22294;-60
2023/06/16 11:25:18;;;;;;;8.40;1.80;;;;;;;24.75;42.68;100066.67;109684;1277;22367;-60
2023/06/16 11:27:49;;;;;;;7.30;1.50;;;;;;;24.69;42.28;100065.47;109739;1283;22229;-59
2023/06/16 11:30:20;;;;;;;7.70;1.80;;;;;;;24.58;41.92;100068.40;109727;1273;22965;-58
2023/06/16 11:32:52;;;;;;;5.90;1.60;;;;;;;24.47;41.89;100066.11;109686;1270;23560;-60
2023/06/16 11:35:31;;;;;;;7.00;1.60;;;;;;;24.44;41.89;100069.05;109746;1279;22788;-59